עמוד ראשי
METAR-TAF:

METAR-TAF

שדות תעופה :

Ilo, פרו

קו רוחב: 17-41-45S, קו אורך: 071-20-35W, גובה: 22מטר

תצפית מזג אוויר נוכחית

הדו"ח נערך לפני 3 שעות ו 38דקות, בשעה 21:00 UTC
רוח 6קשר מכיוון דרום/דרום-מערב
טמפרטורת 19 צלסיוס
לחות 78%
לחץ 1011 hPa
ראות 10 קילומטר או יותר
מעונן בגובה 2800רגל

METAR: SPLO 202100Z 21006KT 9999 OVC028 19/15 Q1011 RMK TX20.4 PP000

זמן: 19:38 (00:38 UTC)

תחזית

הדו"ח נערך לפני 7 שעות ו 15דקות, בשעה 17:23 UTC
תחזית בתוקף מ 20 ב 18 UTC עד 21 ב 18 UTC
רוח 10קשר מכיוון דרום/דרום-מערב
ראות 10 קילומטר או יותר
עננים בינוניים בגובה 3000רגל
מ 21 ב 1200UTC
רוח 7קשר מכיוון דרום
ראות: 9000מטר
מעונן בגובה 1400רגל

TAF: SPLO 201723Z 2018/2118 20010KT 9999 BKN030 TX21/2019Z TN16/2111Z FM211200 17007KT 9000 OVC014

תצפיות ותחזיות מזג אוויר לגבי יותר מ- 4,000 שדות תעופה ברחבי העולם. דוחות METAR ו- TAF.

התחנות הזמינות מסומנות בנקודות צהובות ואדומות על גבי המפה.

העבר את העכבר לנקודה הצבעונית על מנת לראות את שם התחנה.

לאחר מכן, לחץ כדי לראות את תוכן ואת תחזיות מזג האוויר.

כדי לשנות את המפה: לחץ על הכפתורים הירוקים עם הפלוס השחור כדי להתקרב; על הכפתור הירוק עם המקף כדי להתרחק; או בחיצים הירוקים למפות סמוכות.


METAR-TAF: